Time;durP1;ratioP1;P1;durP2;ratioP2;P2;SDS_P1;SDS_P2;PMS_P1;PMS_P2;Temp;Humidity;BMP_temperature;BMP_pressure;BME280_temperature;BME280_humidity;BME280_pressure;Samples;Min_cycle;Max_cycle;Signal;HPM_P1;HPM_P2
2022/04/22 00:00:26;;;;;;;2.53;2.00;;;11.40;15.70;;;;;;4954062;28;34302;-79
2022/04/22 00:02:52;;;;;;;2.78;2.00;;;11.40;15.80;;;;;;4969324;28;34080;-80
2022/04/22 00:05:18;;;;;;;2.83;2.08;;;11.40;15.80;;;;;;4953773;28;35616;-79
2022/04/22 00:07:44;;;;;;;2.38;2.10;;;11.40;15.90;;;;;;4952908;28;34179;-80
2022/04/22 00:10:11;;;;;;;2.08;1.85;;;11.40;16.10;;;;;;4969317;28;34177;-79
2022/04/22 00:12:37;;;;;;;2.90;2.22;;;11.40;16.10;;;;;;4953054;28;34075;-79
2022/04/22 00:15:05;;;;;;;2.75;2.33;;;11.40;16.00;;;;;;4954226;28;35794;-79
2022/04/22 00:17:30;;;;;;;2.40;2.20;;;11.30;16.00;;;;;;4953759;28;34207;-80
2022/04/22 00:19:56;;;;;;;2.63;2.35;;;11.20;16.00;;;;;;4953293;28;34165;-79
2022/04/22 00:22:23;;;;;;;2.90;2.40;;;11.20;16.10;;;;;;4953733;28;34180;-79
2022/04/22 00:24:49;;;;;;;2.30;2.10;;;11.10;16.70;;;;;;4953311;28;35959;-79
2022/04/22 00:27:15;;;;;;;2.40;2.20;;;11.10;16.50;;;;;;4951634;28;34261;-78
2022/04/22 00:29:41;;;;;;;2.17;1.90;;;11.00;16.80;;;;;;4950501;28;34242;-77
2022/04/22 00:32:07;;;;;;;3.45;2.50;;;11.00;17.10;;;;;;4949477;28;34228;-78
2022/04/22 00:34:33;;;;;;;2.40;2.10;;;11.00;17.00;;;;;;4952580;28;35586;-79
2022/04/22 00:36:59;;;;;;;2.92;2.28;;;11.00;16.80;;;;;;4952949;28;34087;-79
2022/04/22 00:39:25;;;;;;;4.47;2.53;;;11.00;16.70;;;;;;4953428;28;34095;-79
2022/04/22 00:41:51;;;;;;;5.15;2.75;;;11.00;17.10;;;;;;4969400;28;34585;-79
2022/04/22 00:44:17;;;;;;;2.83;2.30;;;10.90;17.00;;;;;;4951851;28;35447;-79
2022/04/22 00:46:43;;;;;;;3.53;2.50;;;10.90;17.00;;;;;;4967193;28;34543;-79
2022/04/22 00:49:09;;;;;;;3.90;2.28;;;10.90;17.00;;;;;;4956394;28;34257;-77
2022/04/22 00:51:35;;;;;;;3.40;2.70;;;10.80;17.60;;;;;;4972536;28;34066;-79
2022/04/22 00:54:03;;;;;;;3.55;2.20;;;10.80;17.20;;;;;;4972801;28;34357;-79
2022/04/22 00:56:30;;;;;;;3.15;2.63;;;10.70;18.00;;;;;;4955069;28;34351;-80
2022/04/22 00:58:57;;;;;;;3.78;2.42;;;10.70;17.50;;;;;;4956045;28;34115;-79
2022/04/22 01:01:24;;;;;;;5.70;2.95;;;10.60;17.40;;;;;;4954552;28;34306;-79
2022/04/22 01:11:55;;;;;;;4.05;3.28;;;10.30;17.80;;;;;;4970892;28;34261;-79
2022/04/22 01:14:21;;;;;;;7.55;3.20;;;10.30;17.90;;;;;;4954803;28;35969;-79
2022/04/22 01:16:47;;;;;;;2.83;2.38;;;10.20;17.80;;;;;;4971302;28;34161;-79
2022/04/22 01:19:13;;;;;;;4.25;3.25;;;10.20;18.00;;;;;;4953636;28;34229;-79
2022/04/22 01:21:39;;;;;;;7.65;3.25;;;10.10;18.00;;;;;;4953892;28;34103;-78
2022/04/22 01:24:05;;;;;;;4.82;3.40;;;10.10;18.10;;;;;;4972315;28;34439;-78
2022/04/22 01:26:31;;;;;;;5.55;3.33;;;10.00;18.20;;;;;;4955426;28;34026;-79
2022/04/22 01:28:58;;;;;;;4.07;3.00;;;10.00;18.60;;;;;;4972516;28;34084;-79
2022/04/22 01:31:24;;;;;;;3.67;3.05;;;10.00;18.90;;;;;;4955222;28;34397;-79
2022/04/22 01:33:50;;;;;;;3.60;3.03;;;9.90;18.50;;;;;;4954180;28;35841;-79
2022/04/22 01:36:16;;;;;;;4.32;3.28;;;9.90;18.60;;;;;;4954111;28;34239;-79
2022/04/22 01:38:42;;;;;;;5.03;3.28;;;9.90;18.50;;;;;;4971662;28;34253;-79
2022/04/22 01:41:08;;;;;;;4.00;3.28;;;9.80;18.50;;;;;;4955191;28;34215;-80
2022/04/22 01:43:34;;;;;;;4.22;3.17;;;9.80;18.70;;;;;;4969546;28;35889;-79
2022/04/22 01:46:00;;;;;;;6.22;3.17;;;9.70;18.70;;;;;;4971189;28;34139;-80
2022/04/22 01:48:26;;;;;;;5.30;3.20;;;9.70;18.90;;;;;;4972992;28;34180;-79
2022/04/22 01:50:53;;;;;;;4.32;3.10;;;9.60;19.00;;;;;;4953656;28;34119;-78
2022/04/22 01:53:18;;;;;;;3.88;3.20;;;9.50;19.30;;;;;;4953600;28;35503;-79
2022/04/22 01:55:45;;;;;;;4.15;3.25;;;9.40;19.30;;;;;;4969396;28;34583;-79
2022/04/22 01:58:10;;;;;;;4.53;3.42;;;9.40;19.40;;;;;;4952866;28;34347;-79
2022/04/22 02:00:36;;;;;;;3.70;3.22;;;9.30;19.50;;;;;;4954637;28;34477;-79
2022/04/22 02:03:02;;;;;;;5.75;3.22;;;9.20;19.80;;;;;;4969422;28;36360;-79
2022/04/22 02:05:28;;;;;;;4.00;3.33;;;9.20;20.20;;;;;;4970567;28;34307;-79
2022/04/22 02:07:54;;;;;;;4.45;3.90;;;9.10;20.10;;;;;;4953836;28;33658;-79
2022/04/22 02:10:20;;;;;;;4.75;3.85;;;9.10;20.10;;;;;;4970444;28;34293;-78
2022/04/22 02:12:46;;;;;;;4.40;3.22;;;9.00;20.10;;;;;;4953386;28;35566;-78
2022/04/22 02:15:14;;;;;;;5.53;3.67;;;8.90;20.80;;;;;;4953958;28;34278;-79
2022/04/22 02:17:41;;;;;;;7.20;4.28;;;8.90;20.90;;;;;;4972534;28;34205;-79
2022/04/22 02:20:07;;;;;;;5.80;4.05;;;8.80;20.80;;;;;;4955304;28;34492;-79
2022/04/22 02:22:34;;;;;;;6.95;3.85;;;8.70;21.00;;;;;;4969517;28;36023;-79
2022/04/22 02:25:00;;;;;;;6.10;4.57;;;8.70;21.10;;;;;;4954657;28;34187;-79
2022/04/22 02:30:08;;;;;;;5.45;4.47;;;8.60;21.10;;;;;;4970590;28;34226;-80
2022/04/22 02:32:34;;;;;;;5.38;4.22;;;8.60;21.20;;;;;;4970175;28;35578;-79
2022/04/22 02:34:59;;;;;;;5.57;4.28;;;8.50;21.20;;;;;;4954363;28;34148;-79
2022/04/22 02:37:26;;;;;;;5.88;4.40;;;8.50;21.50;;;;;;4971087;28;34480;-79
2022/04/22 02:39:51;;;;;;;6.82;4.75;;;8.40;21.40;;;;;;4971039;28;34076;-79
2022/04/22 02:47:40;;;;;;;6.47;4.95;;;8.30;21.60;;;;;;4972316;28;34222;-80
2022/04/22 02:50:06;;;;;;;6.47;4.97;;;8.30;21.90;;;;;;4954420;28;34274;-79
2022/04/22 02:52:32;;;;;;;6.38;4.47;;;8.20;21.70;;;;;;4969731;28;34657;-79
2022/04/22 02:54:58;;;;;;;6.75;4.88;;;8.20;21.80;;;;;;4954359;28;34165;-79
2022/04/22 02:57:24;;;;;;;6.75;5.07;;;8.20;22.00;;;;;;4954868;28;34080;-79
2022/04/22 02:59:50;;;;;;;8.02;5.03;;;8.10;22.20;;;;;;4970142;28;34103;-79
2022/04/22 03:02:16;;;;;;;7.40;4.93;;;8.00;22.20;;;;;;4953575;28;35903;-79
2022/04/22 03:04:42;;;;;;;6.43;5.10;;;7.90;22.10;;;;;;4954943;28;34582;-79
2022/04/22 03:07:08;;;;;;;6.30;5.15;;;7.90;22.30;;;;;;4954805;28;34289;-79
2022/04/22 03:09:34;;;;;;;6.35;5.03;;;7.90;22.40;;;;;;4970197;28;34219;-79
2022/04/22 03:12:00;;;;;;;5.63;4.80;;;7.80;22.70;;;;;;4969862;28;36014;-79
2022/04/22 03:14:26;;;;;;;8.35;6.00;;;7.70;23.10;;;;;;4953245;28;34252;-79
2022/04/22 03:16:52;;;;;;;7.50;5.32;;;7.70;23.10;;;;;;4971172;28;34071;-79
2022/04/22 03:19:18;;;;;;;7.80;5.57;;;7.70;23.20;;;;;;4954805;28;34459;-79
2022/04/22 03:21:44;;;;;;;9.18;6.00;;;7.70;23.80;;;;;;4953351;28;36059;-80
2022/04/22 03:24:11;;;;;;;7.13;5.68;;;7.60;23.60;;;;;;4971088;28;34203;-80
2022/04/22 03:26:37;;;;;;;7.90;5.38;;;7.60;23.60;;;;;;4971822;28;34216;-80
2022/04/22 03:29:03;;;;;;;7.57;5.70;;;7.60;23.80;;;;;;4955406;28;34079;-79
2022/04/22 03:31:29;;;;;;;9.82;6.45;;;7.50;23.80;;;;;;4955139;28;36644;-79
2022/04/22 03:33:55;;;;;;;8.75;6.18;;;7.50;23.80;;;;;;4972516;28;33679;-79
2022/04/22 03:36:21;;;;;;;8.05;5.93;;;7.50;24.00;;;;;;4954707;28;34279;-79
2022/04/22 03:38:46;;;;;;;9.32;6.72;;;7.40;24.20;;;;;;4970528;28;34208;-79
2022/04/22 03:41:12;;;;;;;11.13;7.10;;;7.40;24.40;;;;;;4953402;28;36835;-79
2022/04/22 03:43:39;;;;;;;10.70;6.43;;;7.30;24.80;;;;;;4955709;28;34181;-79
2022/04/22 03:46:05;;;;;;;10.30;6.47;;;7.30;24.90;;;;;;4952868;28;34153;-79
2022/04/22 03:48:31;;;;;;;10.23;6.63;;;7.30;25.10;;;;;;4953905;28;34297;-79
2022/04/22 03:50:57;;;;;;;10.23;6.43;;;7.30;25.60;;;;;;4970764;28;36746;-79
2022/04/22 03:53:23;;;;;;;9.52;6.28;;;7.30;25.70;;;;;;4970039;28;34067;-79
2022/04/22 03:55:49;;;;;;;9.32;6.13;;;7.30;25.50;;;;;;4954751;28;34210;-79
2022/04/22 03:58:17;;;;;;;10.30;6.63;;;7.30;25.70;;;;;;4990865;28;34216;-79
2022/04/22 04:00:49;;;;;;;8.82;6.10;;;7.20;25.80;;;;;;4989204;28;35939;-79
2022/04/22 04:03:18;;;;;;;8.85;6.28;;;7.20;27.20;;;;;;4989348;28;34193;-79
2022/04/22 04:05:47;;;;;;;8.43;6.28;;;7.10;26.40;;;;;;4973078;28;34103;-79
2022/04/22 04:08:14;;;;;;;10.13;6.50;;;7.10;26.10;;;;;;4990673;28;34192;-79
2022/04/22 04:16:03;;;;;;;10.10;6.40;;;7.00;25.90;;;;;;4990320;28;34019;-79
2022/04/22 04:18:33;;;;;;;10.55;6.85;;;6.90;26.00;;;;;;4958669;28;34148;-79
2022/04/22 04:23:41;;;;;;;10.55;7.20;;;6.90;26.10;;;;;;4975501;28;34098;-79
2022/04/22 04:26:08;;;;;;;11.25;7.53;;;6.90;26.10;;;;;;4990618;28;33991;-79
2022/04/22 04:28:35;;;;;;;10.48;7.22;;;6.90;26.20;;;;;;4973162;28;34071;-79
2022/04/22 04:31:01;;;;;;;8.73;6.63;;;6.90;26.20;;;;;;4987849;28;35562;-79
2022/04/22 04:33:28;;;;;;;14.07;7.70;;;6.90;26.40;;;;;;4988112;28;34413;-78
2022/04/22 04:35:54;;;;;;;10.70;7.03;;;6.90;27.10;;;;;;4988749;28;34197;-79
2022/04/22 04:38:20;;;;;;;11.10;7.47;;;6.90;27.00;;;;;;4988259;28;34266;-79
2022/04/22 04:40:46;;;;;;;13.80;8.05;;;7.00;27.10;;;;;;4987773;28;36361;-79
2022/04/22 04:43:12;;;;;;;13.18;8.32;;;7.10;27.00;;;;;;4988133;28;34111;-79
2022/04/22 04:45:40;;;;;;;16.60;8.55;;;7.20;27.50;;;;;;4972385;28;34182;-81
2022/04/22 04:48:06;;;;;;;13.48;8.85;;;7.30;27.90;;;;;;4988885;28;34408;-79
2022/04/22 04:50:32;;;;;;;12.43;8.15;;;7.40;27.60;;;;;;4971449;28;35649;-79
2022/04/22 04:52:59;;;;;;;14.30;8.75;;;7.50;27.70;;;;;;4972568;28;33709;-79
2022/04/22 04:55:26;;;;;;;17.10;8.57;;;7.60;27.90;;;;;;4989212;28;34152;-79
2022/04/22 04:57:52;;;;;;;13.70;8.88;;;7.70;28.10;;;;;;4972170;28;34538;-79
2022/04/22 05:00:18;;;;;;;16.58;9.30;;;7.80;27.90;;;;;;4990492;28;34327;-79
2022/04/22 05:02:45;;;;;;;13.10;8.80;;;7.90;28.30;;;;;;4972796;28;34493;-79
2022/04/22 05:05:12;;;;;;;13.60;8.55;;;8.00;27.70;;;;;;4972792;28;34365;-79
2022/04/22 05:07:49;;;;;;;17.90;9.48;;;8.20;27.80;;;;;;4987931;28;34211;-79
2022/04/22 05:10:17;;;;;;;15.18;9.45;;;8.30;31.80;;;;;;4988040;28;36380;-77
2022/04/22 05:12:45;;;;;;;16.55;9.18;;;8.40;32.10;;;;;;4970866;28;34360;-79
2022/04/22 05:15:12;;;;;;;14.50;8.88;;;8.50;29.10;;;;;;4987362;28;34288;-79
2022/04/22 05:17:40;;;;;;;14.77;8.65;;;8.60;28.30;;;;;;4986213;28;34131;-79
2022/04/22 05:20:06;;;;;;;16.30;9.65;;;8.80;28.70;;;;;;4987075;28;36408;-79
2022/04/22 05:22:32;;;;;;;18.70;9.90;;;8.80;28.20;;;;;;4972948;28;34156;-78
2022/04/22 05:24:58;;;;;;;18.23;9.80;;;9.00;28.10;;;;;;4989011;28;34493;-79
2022/04/22 05:27:24;;;;;;;16.55;9.38;;;9.10;28.10;;;;;;4988186;28;34503;-79
2022/04/22 05:32:38;;;;;;;15.20;9.13;;;9.20;28.00;;;;;;4989178;28;34184;-79
2022/04/22 05:35:05;;;;;;;18.02;9.55;;;9.30;28.20;;;;;;4977414;28;34182;-80
2022/04/22 05:37:47;;;;;;;17.23;9.80;;;9.40;28.10;;;;;;4991116;28;34047;-78
2022/04/22 05:40:16;;;;;;;17.00;9.82;;;9.50;33.20;;;;;;4989614;28;36512;-79
2022/04/22 05:42:42;;;;;;;15.05;9.73;;;9.50;28.30;;;;;;4975453;28;34296;-79
2022/04/22 05:45:09;;;;;;;17.25;9.95;;;9.60;27.90;;;;;;4993299;28;34346;-80
2022/04/22 05:47:36;;;;;;;16.35;9.15;;;9.70;28.00;;;;;;4976211;28;34266;-78
2022/04/22 05:50:04;;;;;;;16.13;9.80;;;9.80;28.00;;;;;;4989987;28;35575;-80
2022/04/22 05:52:49;;;;;;;17.17;9.43;;;9.80;28.20;;;;;;4975484;28;34171;-79
2022/04/22 05:55:17;;;;;;;13.70;9.05;;;9.90;32.00;;;;;;4991899;28;34072;-79
2022/04/22 05:57:45;;;;;;;16.20;9.30;;;9.90;28.30;;;;;;4993746;28;34037;-80
2022/04/22 06:00:15;;;;;;;16.52;9.52;;;10.00;27.70;;;;;;4992618;28;35994;-80
2022/04/22 06:02:42;;;;;;;17.30;9.68;;;10.00;27.60;;;;;;4973790;28;34113;-77
2022/04/22 06:05:10;;;;;;;14.65;9.00;;;10.10;28.00;;;;;;4993258;28;34146;-80
2022/04/22 06:07:37;;;;;;;16.67;9.32;;;10.20;27.20;;;;;;4992701;28;34491;-80
2022/04/22 06:12:46;;;;;;;21.50;9.95;;;10.30;27.50;;;;;;4990848;28;34272;-77
2022/04/22 06:15:12;;;;;;;15.55;9.02;;;10.40;26.80;;;;;;4988830;28;34257;-78
2022/04/22 06:17:38;;;;;;;15.52;8.73;;;10.40;26.60;;;;;;4978337;28;34344;-80
2022/04/22 06:20:04;;;;;;;14.25;9.10;;;10.50;26.60;;;;;;4954839;28;35479;-79
2022/04/22 06:22:31;;;;;;;15.23;9.10;;;10.50;26.80;;;;;;4969344;28;34344;-77
2022/04/22 06:24:57;;;;;;;12.95;9.02;;;10.60;27.60;;;;;;4967957;28;34130;-77
2022/04/22 06:27:26;;;;;;;14.85;9.65;;;10.60;26.80;;;;;;4988240;28;34563;-79
2022/04/22 06:29:54;;;;;;;13.82;8.57;;;10.70;27.20;;;;;;4971129;28;35635;-77
2022/04/22 06:32:22;;;;;;;15.82;9.32;;;10.80;26.60;;;;;;4978576;28;33665;-78
2022/04/22 06:34:50;;;;;;;14.95;8.15;;;10.80;26.30;;;;;;4970838;28;34346;-77
2022/04/22 06:37:17;;;;;;;14.90;9.05;;;10.90;26.60;;;;;;4974578;28;34300;-77
2022/04/22 06:47:47;;;;;;;14.20;8.95;;;11.30;25.10;;;;;;4958258;28;34215;-78
2022/04/22 06:50:19;;;;;;;13.75;8.07;;;11.40;25.10;;;;;;4955884;28;35825;-77
2022/04/22 06:52:46;;;;;;;15.90;9.57;;;11.50;25.60;;;;;;4971056;28;34133;-78
2022/04/22 06:55:14;;;;;;;14.02;8.98;;;11.60;24.90;;;;;;4974269;28;34339;-79
2022/04/22 06:57:40;;;;;;;13.70;8.20;;;11.70;25.00;;;;;;4987453;28;34341;-78
2022/04/22 07:00:10;;;;;;;13.18;8.13;;;11.70;24.60;;;;;;4972082;28;36698;-79
2022/04/22 07:02:36;;;;;;;15.68;9.02;;;11.80;24.40;;;;;;4965830;28;34346;-78
2022/04/22 07:05:03;;;;;;;11.77;7.88;;;12.00;24.30;;;;;;4984837;28;34272;-79
2022/04/22 07:07:29;;;;;;;13.15;8.20;;;12.00;24.10;;;;;;4969663;28;34143;-79
2022/04/22 07:09:56;;;;;;;13.90;8.40;;;12.10;23.80;;;;;;4970088;28;35036;-76
2022/04/22 07:12:26;;;;;;;12.93;7.95;;;12.20;24.10;;;;;;4952249;28;34258;-79
2022/04/22 07:15:03;;;;;;;14.45;7.65;;;12.20;24.10;;;;;;4953772;28;34044;-80
2022/04/22 07:17:32;;;;;;;12.88;7.05;;;12.30;23.60;;;;;;4972476;28;34103;-79
2022/04/22 07:20:00;;;;;;;13.27;7.80;;;12.40;23.50;;;;;;4952219;28;35848;-78
2022/04/22 07:22:27;;;;;;;11.45;7.15;;;12.40;23.40;;;;;;4951350;28;33819;-79
2022/04/22 07:24:55;;;;;;;11.57;7.38;;;12.40;23.40;;;;;;4952124;28;34388;-79
2022/04/22 07:27:26;;;;;;;11.88;7.90;;;12.40;23.10;;;;;;4969195;28;34048;-78
2022/04/22 07:29:52;;;;;;;10.68;7.03;;;12.50;23.30;;;;;;4967407;28;35866;-79
2022/04/22 07:32:18;;;;;;;12.27;7.35;;;12.70;22.60;;;;;;4951955;28;34206;-78
2022/04/22 07:34:44;;;;;;;10.43;7.00;;;13.00;22.10;;;;;;4952328;28;34205;-79
2022/04/22 07:37:10;;;;;;;9.35;6.53;;;13.40;21.50;;;;;;4936810;28;33974;-79
2022/04/22 07:39:39;;;;;;;13.68;7.90;;;13.80;21.20;;;;;;4950576;28;35702;-77
2022/04/22 07:42:07;;;;;;;16.13;7.70;;;14.00;20.30;;;;;;4936691;28;34137;-80
2022/04/22 07:47:20;;;;;;;10.30;7.05;;;14.10;20.00;;;;;;4967762;28;34950;-78
2022/04/22 07:49:47;;;;;;;11.15;6.88;;;14.20;19.50;;;;;;4967608;28;34925;-78
2022/04/22 07:52:13;;;;;;;17.70;7.18;;;14.40;18.90;;;;;;4952548;28;34195;-80
2022/04/22 07:54:39;;;;;;;11.50;7.15;;;14.80;19.30;;;;;;4968315;28;34119;-78
2022/04/22 07:57:05;;;;;;;11.80;6.95;;;15.30;19.00;;;;;;4951215;28;34244;-79
2022/04/22 07:59:31;;;;;;;10.70;7.35;;;15.60;18.50;;;;;;4951893;28;35194;-79
2022/04/22 08:01:58;;;;;;;8.52;6.57;;;15.90;18.10;;;;;;4986463;28;34311;-80
2022/04/22 08:04:25;;;;;;;9.52;6.60;;;16.00;17.70;;;;;;4969261;28;34273;-80
2022/04/22 08:06:51;;;;;;;10.27;6.82;;;16.30;17.50;;;;;;4953782;28;34063;-79
2022/04/22 08:09:17;;;;;;;10.60;6.43;;;16.40;17.20;;;;;;4970127;28;35593;-80
2022/04/22 08:11:43;;;;;;;9.52;6.47;;;16.60;17.00;;;;;;4964421;28;34197;-78
2022/04/22 08:14:12;;;;;;;8.18;6.32;;;16.80;16.60;;;;;;4969381;28;34191;-80
2022/04/22 08:16:39;;;;;;;10.52;6.88;;;17.00;16.30;;;;;;4978184;28;34069;-78
2022/04/22 08:19:05;;;;;;;8.98;5.93;;;17.20;15.90;;;;;;4967386;28;35612;-78
2022/04/22 08:21:34;;;;;;;7.55;5.93;;;17.30;15.90;;;;;;4970662;28;34114;-78
2022/04/22 08:24:02;;;;;;;8.48;5.82;;;17.10;15.50;;;;;;4970213;28;34435;-78
2022/04/22 08:26:31;;;;;;;7.97;5.88;;;17.10;14.70;;;;;;4987781;28;34155;-79
2022/04/22 08:28:57;;;;;;;8.60;6.10;;;16.80;14.40;;;;;;4970743;28;36069;-78
2022/04/22 08:31:23;;;;;;;14.73;5.85;;;16.70;16.00;;;;;;4969766;28;34389;-79
2022/04/22 08:33:49;;;;;;;7.97;5.57;;;16.20;15.70;;;;;;4969341;28;34539;-77
2022/04/22 08:36:15;;;;;;;7.82;6.00;;;15.80;16.10;;;;;;4970120;28;34498;-79
2022/04/22 08:38:41;;;;;;;10.10;6.10;;;15.90;16.50;;;;;;4952542;28;35557;-77
2022/04/22 08:41:09;;;;;;;9.30;6.05;;;16.00;16.20;;;;;;4985174;28;34221;-78
2022/04/22 08:43:37;;;;;;;8.05;5.40;;;16.20;16.00;;;;;;4961001;28;34550;-79
2022/04/22 08:46:02;;;;;;;6.65;5.43;;;16.50;16.00;;;;;;4969218;28;34104;-78
2022/04/22 08:51:12;;;;;;;10.82;5.60;;;17.00;14.40;;;;;;4950697;28;34368;-79
2022/04/22 08:53:43;;;;;;;9.48;5.80;;;17.10;14.90;;;;;;4971981;28;34196;-78
2022/04/22 08:56:10;;;;;;;14.15;6.18;;;17.40;13.90;;;;;;4966906;28;34363;-79
2022/04/22 08:58:36;;;;;;;9.05;6.15;;;17.60;14.60;;;;;;4932387;28;36402;-77
2022/04/22 09:01:03;;;;;;;7.63;5.43;;;17.70;14.20;;;;;;4962301;28;34235;-80
2022/04/22 09:03:29;;;;;;;7.38;5.57;;;17.90;14.00;;;;;;4968104;28;34652;-79
2022/04/22 09:05:56;;;;;;;7.72;5.28;;;17.90;13.80;;;;;;4950281;28;34237;-78
2022/04/22 09:08:28;;;;;;;8.80;5.70;;;17.80;12.80;;;;;;4968993;28;36999;-76
2022/04/22 09:10:55;;;;;;;7.22;5.38;;;17.90;12.30;;;;;;4971727;28;34139;-78
2022/04/22 09:13:30;;;;;;;8.20;5.63;;;18.10;13.60;;;;;;4958263;28;34210;-79
2022/04/22 09:15:58;;;;;;;7.75;5.70;;;18.30;11.70;;;;;;4971439;28;34639;-79
2022/04/22 09:18:26;;;;;;;10.18;6.38;;;18.40;13.40;;;;;;4970845;28;36667;-77
2022/04/22 09:20:56;;;;;;;7.88;5.20;;;18.50;12.80;;;;;;4971549;28;33736;-79
2022/04/22 09:23:24;;;;;;;6.95;5.13;;;18.50;12.50;;;;;;4988877;28;34277;-80
2022/04/22 09:25:50;;;;;;;6.53;4.95;;;18.50;13.10;;;;;;4972425;28;34622;-79
2022/04/22 09:28:16;;;;;;;9.60;6.03;;;18.60;13.10;;;;;;4972094;28;35949;-80
2022/04/22 09:30:42;;;;;;;8.23;5.43;;;18.80;12.70;;;;;;4971432;28;34159;-81
2022/04/22 09:33:09;;;;;;;7.50;5.30;;;18.80;12.80;;;;;;4971932;28;34131;-79
2022/04/22 09:43:57;;;;;;;8.52;5.38;;;19.00;12.00;;;;;;4990095;28;34299;-78
2022/04/22 09:46:30;;;;;;;7.47;5.22;;;19.10;11.90;;;;;;4972642;28;34139;-77
2022/04/22 09:48:56;;;;;;;6.38;5.25;;;19.00;11.50;;;;;;4972520;28;36408;-78
2022/04/22 09:51:27;;;;;;;7.47;5.50;;;19.10;11.70;;;;;;4958422;28;34842;-78
2022/04/22 09:54:03;;;;;;;7.70;5.10;;;19.10;11.60;;;;;;4977532;28;34275;-75
2022/04/22 09:56:32;;;;;;;6.28;4.85;;;19.10;9.30;;;;;;4971960;28;34518;-78
2022/04/22 09:58:58;;;;;;;7.35;4.70;;;19.20;11.60;;;;;;4971435;28;35724;-79
2022/04/22 10:01:25;;;;;;;7.88;5.55;;;19.40;11.20;;;;;;4955466;28;34206;-77
2022/04/22 10:03:51;;;;;;;8.57;4.80;;;19.40;10.70;;;;;;4955535;28;34166;-77
2022/04/22 10:06:19;;;;;;;7.72;5.20;;;19.50;11.00;;;;;;4971245;28;34540;-76
2022/04/22 10:08:46;;;;;;;6.65;4.85;;;19.50;10.60;;;;;;4971013;28;35875;-76
2022/04/22 10:11:16;;;;;;;7.50;5.07;;;19.60;10.60;;;;;;4989939;28;34111;-79
2022/04/22 10:13:45;;;;;;;6.28;4.82;;;19.60;9.20;;;;;;4955057;28;34272;-78
2022/04/22 10:16:12;;;;;;;7.15;5.20;;;19.70;9.70;;;;;;4970756;28;34522;-78
2022/04/22 10:18:40;;;;;;;7.00;5.20;;;19.70;10.50;;;;;;4955368;28;35621;-77
2022/04/22 10:21:06;;;;;;;6.43;5.00;;;19.70;8.40;;;;;;4968456;28;34377;-79
2022/04/22 10:23:32;;;;;;;5.72;4.90;;;19.80;9.90;;;;;;4966799;28;34400;-76
2022/04/22 10:26:01;;;;;;;7.43;5.55;;;20.00;10.20;;;;;;4960547;28;34254;-76
2022/04/22 10:28:30;;;;;;;6.75;4.93;;;20.00;9.80;;;;;;4967317;28;34204;-78
2022/04/22 10:31:00;;;;;;;6.82;5.22;;;20.00;10.20;;;;;;4967733;28;34268;-78
2022/04/22 10:33:38;;;;;;;7.80;5.25;;;20.00;9.10;;;;;;4952624;28;33759;-77
2022/04/22 10:36:05;;;;;;;7.20;5.50;;;20.10;9.60;;;;;;4956277;28;34195;-77
2022/04/22 10:38:43;;;;;;;6.53;4.90;;;20.30;9.80;;;;;;4969945;28;35978;-79
2022/04/22 10:41:18;;;;;;;8.52;5.63;;;20.40;8.00;;;;;;4970048;28;34112;-76
2022/04/22 10:47:13;;;;;;;8.32;4.68;;;20.40;8.50;;;;;;4976244;28;34568;-75
2022/04/22 10:49:15;;;;;;;9.38;4.82;;;20.50;9.40;;;;;;4987780;28;34721;-78
2022/04/22 10:51:59;;;;;;;7.13;5.47;;;20.50;9.30;;;;;;4988167;28;34126;-76
2022/04/22 10:54:55;;;;;;;6.38;4.90;;;20.60;6.30;;;;;;4955717;28;34138;-78
2022/04/22 10:57:23;;;;;;;6.05;4.70;;;20.60;7.30;;;;;;4969391;28;34057;-78
2022/04/22 11:00:27;;;;;;;6.63;4.90;;;20.80;8.90;;;;;;4970944;28;35870;-75
2022/04/22 11:03:04;;;;;;;5.43;4.38;;;21.00;5.10;;;;;;4958738;28;34101;-76
2022/04/22 11:05:34;;;;;;;5.82;5.03;;;21.00;6.70;;;;;;4987974;28;34384;-80
2022/04/22 11:08:01;;;;;;;6.68;5.15;;;21.20;7.30;;;;;;4971051;28;34140;-79
2022/04/22 11:10:29;;;;;;;7.50;5.13;;;21.10;8.20;;;;;;4987712;28;35276;-77
2022/04/22 11:12:57;;;;;;;6.32;5.47;;;21.10;7.50;;;;;;4954620;28;34137;-77
2022/04/22 11:15:47;;;;;;;8.65;5.20;;;21.30;8.40;;;;;;4956183;28;34147;-79
2022/04/22 11:18:15;;;;;;;6.72;4.95;;;21.60;6.20;;;;;;4987190;28;34439;-78
2022/04/22 11:20:44;;;;;;;7.38;5.30;;;21.60;7.50;;;;;;4970925;28;36434;-78
2022/04/22 11:23:14;;;;;;;5.90;5.05;;;21.60;6.10;;;;;;4969858;28;34266;-76
2022/04/22 11:25:41;;;;;;;10.23;5.35;;;21.60;7.00;;;;;;4987173;28;34067;-79
2022/04/22 11:28:08;;;;;;;6.10;5.13;;;21.50;7.80;;;;;;4971541;28;34093;-78
2022/04/22 11:30:35;;;;;;;5.90;5.28;;;21.70;7.90;;;;;;4954539;28;36989;-75
2022/04/22 11:33:21;;;;;;;5.97;4.82;;;21.90;7.90;;;;;;4955977;28;34070;-80
2022/04/22 11:35:50;;;;;;;6.10;4.97;;;21.80;4.80;;;;;;4969874;28;34071;-76
2022/04/22 11:38:16;;;;;;;5.45;4.55;;;21.90;5.40;;;;;;4954586;28;33983;-75
2022/04/22 11:40:44;;;;;;;6.30;5.15;;;22.00;7.30;;;;;;4987188;28;34353;-76
2022/04/22 11:43:12;;;;;;;7.68;5.13;;;22.00;7.20;;;;;;4973768;28;34111;-78
2022/04/22 11:45:43;;;;;;;6.22;5.03;;;22.10;7.10;;;;;;4954102;28;34021;-78
2022/04/22 11:48:10;;;;;;;5.78;5.00;;;22.30;6.40;;;;;;4976618;28;34400;-79
2022/04/22 11:50:38;;;;;;;6.65;4.90;;;22.60;6.70;;;;;;4974215;28;35926;-79
2022/04/22 11:53:13;;;;;;;10.50;4.63;;;22.60;6.40;;;;;;4974497;28;34275;-78
2022/04/22 11:55:42;;;;;;;6.95;4.75;;;22.60;3.80;;;;;;4989752;28;34049;-76
2022/04/22 11:58:09;;;;;;;5.60;4.03;;;22.60;6.10;;;;;;4974394;28;34340;-78
2022/04/22 12:06:04;;;;;;;4.50;4.05;;;22.60;6.10;;;;;;4982180;28;34162;-78
2022/04/22 12:08:30;;;;;;;5.03;3.90;;;22.50;6.40;;;;;;4972779;28;34309;-75
2022/04/22 12:10:56;;;;;;;4.32;3.90;;;22.40;6.20;;;;;;4988568;28;35788;-79
2022/04/22 12:13:25;;;;;;;5.30;4.60;;;22.20;5.90;;;;;;4989741;28;34133;-79
2022/04/22 12:15:50;;;;;;;4.10;3.70;;;22.00;4.50;;;;;;5008329;28;34482;-77
2022/04/22 12:18:36;;;;;;;5.85;4.13;;;22.00;6.10;;;;;;4991465;28;34198;-78
2022/04/22 12:21:05;;;;;;;5.80;3.92;;;22.20;2.90;;;;;;4982245;28;36132;-78
2022/04/22 12:23:51;;;;;;;6.25;4.57;;;22.20;3.60;;;;;;4972194;28;34251;-79
2022/04/22 12:26:23;;;;;;;7.50;4.20;;;22.30;5.10;;;;;;5006346;28;34026;-77
2022/04/22 12:29:10;;;;;;;7.25;3.97;;;22.50;3.70;;;;;;4988675;28;34268;-77
2022/04/22 12:31:46;;;;;;;4.78;3.92;;;22.60;3.10;;;;;;5005949;28;34985;-79
2022/04/22 12:34:14;;;;;;;5.93;4.05;;;22.60;2.30;;;;;;4974646;28;34076;-79
2022/04/22 12:36:55;;;;;;;5.85;4.60;;;22.60;4.40;;;;;;4975188;28;34298;-79
2022/04/22 12:39:44;;;;;;;5.07;4.30;;;22.70;1.40;;;;;;5009298;28;34194;-77
2022/04/22 12:42:26;;;;;;;5.63;4.60;;;22.90;2.50;;;;;;4982628;28;35906;-79
2022/04/22 12:53:42;;;;;;;4.00;3.60;;;23.20;4.50;;;;;;4992948;28;34412;-80
2022/04/22 12:56:09;;;;;;;4.28;3.63;;;23.30;4.40;;;;;;4974697;28;34206;-79
2022/04/22 12:58:51;;;;;;;3.95;3.60;;;23.30;4.20;;;;;;4974098;28;34352;-79
2022/04/22 13:01:20;;;;;;;6.57;3.90;;;23.60;1.10;;;;;;5006371;28;34119;-76
2022/04/22 13:03:48;;;;;;;4.85;4.30;;;23.40;3.00;;;;;;4972025;28;37057;-76
2022/04/22 13:06:42;;;;;;;6.07;4.10;;;23.20;3.90;;;;;;4988655;28;34079;-79
2022/04/22 13:09:10;;;;;;;4.85;4.05;;;23.10;1.00;;;;;;4966279;28;34136;-78
2022/04/22 13:11:36;;;;;;;6.72;3.63;;;23.00;3.90;;;;;;4989655;28;34461;-79
2022/04/22 13:14:04;;;;;;;4.38;3.58;;;23.10;4.30;;;;;;4989627;28;36052;-77
2022/04/22 13:16:30;;;;;;;5.32;4.30;;;23.00;4.20;;;;;;4971826;28;34046;-79
2022/04/22 13:18:57;;;;;;;5.15;4.65;;;23.10;4.30;;;;;;5004607;28;34209;-77
2022/04/22 13:21:23;;;;;;;4.28;3.60;;;23.00;3.80;;;;;;4987705;28;34156;-77
2022/04/22 13:23:50;;;;;;;4.28;3.38;;;22.90;3.80;;;;;;4987787;28;35905;-79
2022/04/22 13:26:17;;;;;;;5.53;3.97;;;22.90;4.10;;;;;;5005348;28;34067;-78
2022/04/22 13:28:43;;;;;;;4.43;3.45;;;22.70;4.10;;;;;;4987915;28;34192;-76
2022/04/22 13:31:09;;;;;;;4.55;3.25;;;22.50;4.20;;;;;;5005568;28;34254;-78
2022/04/22 13:33:35;;;;;;;4.78;3.88;;;22.30;4.20;;;;;;5005603;28;34216;-80
2022/04/22 13:36:02;;;;;;;4.43;3.88;;;22.30;4.30;;;;;;4971681;28;34387;-75
2022/04/22 13:38:29;;;;;;;4.80;3.45;;;22.30;3.70;;;;;;4972104;28;34623;-78
2022/04/22 13:40:55;;;;;;;4.10;3.50;;;22.20;3.60;;;;;;4987188;28;33977;-77
2022/04/22 13:43:21;;;;;;;10.85;3.80;;;22.10;4.00;;;;;;4988746;28;35591;-79
2022/04/22 13:53:51;;;;;;;7.80;3.90;;;22.50;3.40;;;;;;4990813;28;34070;-78
2022/04/22 13:56:16;;;;;;;4.35;3.58;;;22.50;4.10;;;;;;4991006;28;34144;-78
2022/04/22 13:58:42;;;;;;;3.67;3.15;;;22.70;4.10;;;;;;4974308;28;34068;-77
2022/04/22 14:01:08;;;;;;;3.45;3.15;;;22.80;4.10;;;;;;4989073;28;34205;-79
2022/04/22 14:03:34;;;;;;;3.97;3.08;;;22.70;3.80;;;;;;4970324;28;36898;-76
2022/04/22 14:06:00;;;;;;;3.85;3.20;;;22.60;3.60;;;;;;4974846;28;34436;-74
2022/04/22 14:08:26;;;;;;;3.70;3.38;;;22.70;3.80;;;;;;4992377;28;34298;-77
2022/04/22 14:10:52;;;;;;;9.25;3.58;;;22.80;3.80;;;;;;5006736;28;34014;-76